KAC674 OMDB-OKKK
Flight info
| Callsign | KAC674 |
|---|---|
| Flight time | 1h 39m |
| Altitude | 32000 |
| Route | RIDAP M557 TUMAK M600 KUMBO/N0394F240 A453 DEBTI |
| Aircraft | A320/M-SDE3FGHIRWY/LB1 |
Departure
| Time | 2026-04-25 16:04 |
|---|---|
| Airport | Dubai International Airport (OMDB) |
Arrival
| Time | 2026-04-25 17:44 |
|---|---|
| Airport | Kuwait International Airport (OKKK) |
| Time | Latitude | Longitude | Altitude | Speed | Heading |
|---|---|---|---|---|---|
| 2026-04-25 15:34 | 25.26067 | 55.34125 | 28 ft | 0 kts | 186° |
| 2026-04-25 15:49 | 25.26073 | 55.34126 | 28 ft | 2 kts | 184° |
| 2026-04-25 15:50 | 25.26090 | 55.34128 | 28 ft | 2 kts | 184° |
| 2026-04-25 15:50 | 25.26106 | 55.34130 | 28 ft | 2 kts | 185° |
| 2026-04-25 15:50 | 25.26122 | 55.34132 | 28 ft | 2 kts | 188° |
| 2026-04-25 15:50 | 25.26138 | 55.34134 | 28 ft | 2 kts | 189° |
| 2026-04-25 15:51 | 25.26154 | 55.34138 | 28 ft | 2 kts | 197° |
| 2026-04-25 15:51 | 25.26165 | 55.34142 | 28 ft | 2 kts | 210° |
| 2026-04-25 15:51 | 25.26183 | 55.34138 | 28 ft | 2 kts | 121° |
| 2026-04-25 15:51 | 25.26188 | 55.34128 | 28 ft | 0 kts | 116° |
| 2026-04-25 15:54 | 25.26185 | 55.34135 | 28 ft | 7 kts | 118° |
| 2026-04-25 15:54 | 25.26141 | 55.34214 | 27 ft | 12 kts | 123° |
| 2026-04-25 15:55 | 25.26097 | 55.34289 | 27 ft | 11 kts | 121° |
| 2026-04-25 15:55 | 25.26055 | 55.34369 | 26 ft | 12 kts | 121° |
| 2026-04-25 15:55 | 25.26005 | 55.34461 | 28 ft | 15 kts | 121° |
| 2026-04-25 15:55 | 25.25964 | 55.34550 | 25 ft | 10 kts | 82° |
| 2026-04-25 15:56 | 25.26009 | 55.34599 | 27 ft | 12 kts | 20° |
| 2026-04-25 15:56 | 25.26079 | 55.34639 | 27 ft | 11 kts | 38° |
| 2026-04-25 15:56 | 25.26140 | 55.34708 | 26 ft | 13 kts | 47° |
| 2026-04-25 15:56 | 25.26207 | 55.34775 | 28 ft | 13 kts | 36° |
| 2026-04-25 15:57 | 25.26286 | 55.34827 | 25 ft | 14 kts | 28° |
| 2026-04-25 15:57 | 25.26319 | 55.34933 | 15 ft | 22 kts | 116° |
| 2026-04-25 15:57 | 25.26242 | 55.35075 | 16 ft | 25 kts | 121° |
| 2026-04-25 15:57 | 25.26140 | 55.35260 | 6 ft | 29 kts | 122° |
| 2026-04-25 15:58 | 25.26029 | 55.35457 | 3 ft | 31 kts | 121° |
| 2026-04-25 15:58 | 25.25933 | 55.35635 | 3 ft | 25 kts | 121° |
| 2026-04-25 15:58 | 25.25838 | 55.35802 | 3 ft | 26 kts | 122° |
| 2026-04-25 15:58 | 25.25739 | 55.35971 | 4 ft | 26 kts | 123° |
| 2026-04-25 15:59 | 25.25659 | 55.36124 | 9 ft | 19 kts | 122° |
| 2026-04-25 15:59 | 25.25595 | 55.36240 | 11 ft | 17 kts | 120° |
| 2026-04-25 15:59 | 25.25522 | 55.36373 | 9 ft | 23 kts | 121° |
| 2026-04-25 15:59 | 25.25440 | 55.36518 | 9 ft | 21 kts | 122° |
| 2026-04-25 16:00 | 25.25363 | 55.36655 | 8 ft | 20 kts | 121° |
| 2026-04-25 16:00 | 25.25340 | 55.36697 | 8 ft | 19 kts | 121° |
| 2026-04-25 16:00 | 25.25240 | 55.36877 | 12 ft | 16 kts | 118° |
| 2026-04-25 16:00 | 25.25182 | 55.36987 | 14 ft | 15 kts | 123° |
| 2026-04-25 16:01 | 25.25129 | 55.37080 | 20 ft | 16 kts | 123° |
| 2026-04-25 16:01 | 25.25075 | 55.37173 | 21 ft | 14 kts | 120° |
| 2026-04-25 16:01 | 25.25028 | 55.37262 | 22 ft | 14 kts | 121° |
| 2026-04-25 16:01 | 25.24984 | 55.37344 | 25 ft | 10 kts | 121° |
| 2026-04-25 16:02 | 25.24947 | 55.37410 | 27 ft | 15 kts | 122° |
| 2026-04-25 16:02 | 25.24863 | 55.37560 | 24 ft | 27 kts | 122° |
| 2026-04-25 16:02 | 25.24763 | 55.37742 | 27 ft | 28 kts | 121° |
| 2026-04-25 16:02 | 25.24671 | 55.37914 | 28 ft | 16 kts | 103° |
| 2026-04-25 16:03 | 25.24715 | 55.37989 | 31 ft | 9 kts | 28° |
| 2026-04-25 16:03 | 25.24784 | 55.38011 | 31 ft | 15 kts | 353° |
| 2026-04-25 16:03 | 25.24870 | 55.37907 | 33 ft | 24 kts | 301° |
| 2026-04-25 16:03 | 25.25055 | 55.37569 | 32 ft | 84 kts | 301° |
| 2026-04-25 16:04 | 25.25467 | 55.36830 | 19 ft | 139 kts | 302° |
| 2026-04-25 16:04 | 25.26045 | 55.35777 | 142 ft | 171 kts | 301° |
| 2026-04-25 16:04 | 25.26644 | 55.34651 | 798 ft | 169 kts | 301° |
| 2026-04-25 16:04 | 25.27250 | 55.33551 | 1416 ft | 171 kts | 302° |
| 2026-04-25 16:05 | 25.27899 | 55.32397 | 1824 ft | 180 kts | 303° |
| 2026-04-25 16:05 | 25.28573 | 55.31204 | 2285 ft | 184 kts | 303° |
| 2026-04-25 16:05 | 25.29593 | 55.28524 | 2926 ft | 213 kts | 275° |
| 2026-04-25 16:06 | 25.29721 | 55.26805 | 3121 ft | 234 kts | 279° |
| 2026-04-25 16:06 | 25.29991 | 55.24930 | 3400 ft | 257 kts | 281° |
| 2026-04-25 16:06 | 25.30309 | 55.22942 | 3992 ft | 266 kts | 281° |
| 2026-04-25 16:06 | 25.30633 | 55.20907 | 4770 ft | 269 kts | 280° |
| 2026-04-25 16:07 | 25.30941 | 55.18888 | 5531 ft | 271 kts | 280° |
| 2026-04-25 16:07 | 25.31045 | 55.18191 | 5794 ft | 271 kts | 280° |
| 2026-04-25 16:07 | 25.31542 | 55.14742 | 7057 ft | 275 kts | 279° |
| 2026-04-25 16:07 | 25.31837 | 55.12663 | 7769 ft | 278 kts | 279° |
| 2026-04-25 16:08 | 25.32135 | 55.10532 | 8495 ft | 281 kts | 279° |
| 2026-04-25 16:08 | 25.32431 | 55.08376 | 9218 ft | 285 kts | 278° |
| 2026-04-25 16:08 | 25.32728 | 55.06217 | 9940 ft | 288 kts | 278° |
| 2026-04-25 16:08 | 25.33035 | 55.03972 | 10352 ft | 304 kts | 278° |
| 2026-04-25 16:09 | 25.33364 | 55.01565 | 10515 ft | 327 kts | 278° |
| 2026-04-25 16:09 | 25.33711 | 54.99023 | 10933 ft | 338 kts | 277° |
| 2026-04-25 16:09 | 25.34065 | 54.96429 | 11544 ft | 343 kts | 277° |
| 2026-04-25 16:09 | 25.34421 | 54.93827 | 12152 ft | 348 kts | 277° |
| 2026-04-25 16:10 | 25.34801 | 54.91160 | 12796 ft | 352 kts | 280° |
| 2026-04-25 16:10 | 25.35483 | 54.88531 | 13404 ft | 357 kts | 286° |
| 2026-04-25 16:10 | 25.36236 | 54.85922 | 13988 ft | 361 kts | 286° |
| 2026-04-25 16:10 | 25.37003 | 54.83261 | 14563 ft | 364 kts | 285° |
| 2026-04-25 16:11 | 25.37772 | 54.80590 | 15193 ft | 365 kts | 285° |
| 2026-04-25 16:11 | 25.38543 | 54.77903 | 15809 ft | 366 kts | 285° |
| 2026-04-25 16:11 | 25.39315 | 54.75203 | 16415 ft | 368 kts | 285° |
| 2026-04-25 16:11 | 25.40078 | 54.72531 | 17004 ft | 370 kts | 285° |
| 2026-04-25 16:12 | 25.40857 | 54.69808 | 17593 ft | 372 kts | 284° |
| 2026-04-25 16:12 | 25.41638 | 54.67061 | 18168 ft | 374 kts | 284° |
| 2026-04-25 16:12 | 25.42420 | 54.64302 | 18674 ft | 376 kts | 284° |
| 2026-04-25 16:12 | 25.42677 | 54.63399 | 18838 ft | 376 kts | 284° |
| 2026-04-25 16:13 | 25.43999 | 54.58792 | 19695 ft | 378 kts | 285° |
| 2026-04-25 16:13 | 25.44818 | 54.56018 | 20207 ft | 379 kts | 285° |
| 2026-04-25 16:13 | 25.45650 | 54.53232 | 20710 ft | 380 kts | 285° |
| 2026-04-25 16:13 | 25.46475 | 54.50475 | 21206 ft | 381 kts | 285° |
| 2026-04-25 16:14 | 25.47309 | 54.47676 | 21693 ft | 383 kts | 285° |
| 2026-04-25 16:14 | 25.48139 | 54.44865 | 22178 ft | 384 kts | 285° |
| 2026-04-25 16:14 | 25.48960 | 54.42080 | 22654 ft | 385 kts | 285° |
| 2026-04-25 16:14 | 25.49794 | 54.39252 | 23128 ft | 387 kts | 285° |
| 2026-04-25 16:15 | 25.50634 | 54.36407 | 23571 ft | 389 kts | 285° |
| 2026-04-25 16:15 | 25.51478 | 54.33550 | 23942 ft | 390 kts | 285° |
| 2026-04-25 16:15 | 25.52313 | 54.30712 | 24303 ft | 392 kts | 285° |
| 2026-04-25 16:15 | 25.53156 | 54.27840 | 24666 ft | 394 kts | 285° |
| 2026-04-25 16:16 | 25.54005 | 54.24946 | 25025 ft | 395 kts | 285° |
| 2026-04-25 16:16 | 25.54857 | 54.22036 | 25391 ft | 397 kts | 285° |
| 2026-04-25 16:16 | 25.55712 | 54.19119 | 25740 ft | 399 kts | 285° |
| 2026-04-25 16:16 | 25.56570 | 54.16188 | 26089 ft | 400 kts | 285° |
| 2026-04-25 16:17 | 25.57430 | 54.13250 | 26439 ft | 402 kts | 285° |
| 2026-04-25 16:17 | 25.58296 | 54.10304 | 26790 ft | 404 kts | 285° |
| 2026-04-25 16:17 | 25.59169 | 54.07332 | 27124 ft | 405 kts | 284° |
| 2026-04-25 16:17 | 25.60022 | 54.04395 | 27458 ft | 407 kts | 284° |
| 2026-04-25 16:18 | 25.60881 | 54.01390 | 27794 ft | 408 kts | 284° |
| 2026-04-25 16:18 | 25.61170 | 54.00373 | 27908 ft | 409 kts | 284° |
| 2026-04-25 16:18 | 25.62592 | 53.95341 | 28460 ft | 412 kts | 283° |
| 2026-04-25 16:18 | 25.63451 | 53.92306 | 28818 ft | 413 kts | 283° |
| 2026-04-25 16:19 | 25.64305 | 53.89296 | 29143 ft | 414 kts | 283° |
| 2026-04-25 16:19 | 25.65176 | 53.86236 | 29445 ft | 416 kts | 283° |
| 2026-04-25 16:19 | 25.66050 | 53.83174 | 29750 ft | 417 kts | 283° |
| 2026-04-25 16:20 | 25.67796 | 53.77034 | 30276 ft | 420 kts | 283° |
| 2026-04-25 16:20 | 25.68679 | 53.73930 | 30506 ft | 422 kts | 283° |
| 2026-04-25 16:20 | 25.70451 | 53.67670 | 30961 ft | 426 kts | 283° |
| 2026-04-25 16:21 | 25.71322 | 53.64565 | 31275 ft | 425 kts | 283° |
| 2026-04-25 16:21 | 25.72198 | 53.61434 | 31613 ft | 424 kts | 283° |
| 2026-04-25 16:21 | 25.73074 | 53.58306 | 31872 ft | 424 kts | 283° |
| 2026-04-25 16:22 | 25.74787 | 53.52209 | 31927 ft | 408 kts | 283° |
| 2026-04-25 16:22 | 25.76471 | 53.46216 | 31931 ft | 404 kts | 283° |
| 2026-04-25 16:23 | 25.78132 | 53.40288 | 31933 ft | 404 kts | 283° |
| 2026-04-25 16:23 | 25.79795 | 53.34326 | 31934 ft | 403 kts | 283° |
| 2026-04-25 16:24 | 25.81449 | 53.28398 | 31934 ft | 403 kts | 283° |
| 2026-04-25 16:24 | 25.83114 | 53.22427 | 31936 ft | 403 kts | 283° |
| 2026-04-25 16:25 | 25.84996 | 53.16581 | 31933 ft | 406 kts | 290° |
| 2026-04-25 16:25 | 25.87341 | 53.10862 | 31935 ft | 406 kts | 290° |
| 2026-04-25 16:26 | 25.89657 | 53.05171 | 31934 ft | 406 kts | 290° |
| 2026-04-25 16:26 | 25.91981 | 52.99436 | 31935 ft | 406 kts | 290° |
| 2026-04-25 16:27 | 25.94295 | 52.93715 | 31941 ft | 405 kts | 290° |
| 2026-04-25 16:27 | 25.96597 | 52.88034 | 31943 ft | 405 kts | 290° |
| 2026-04-25 16:28 | 25.98919 | 52.82321 | 31942 ft | 404 kts | 290° |
| 2026-04-25 16:28 | 26.01214 | 52.76645 | 31938 ft | 404 kts | 290° |
| 2026-04-25 16:29 | 26.03600 | 52.70962 | 31953 ft | 405 kts | 292° |
| 2026-04-25 16:29 | 26.05714 | 52.66312 | 31953 ft | 405 kts | 293° |
| 2026-04-25 16:30 | 26.08293 | 52.60720 | 31951 ft | 404 kts | 292° |
| 2026-04-25 16:30 | 26.10811 | 52.55165 | 31949 ft | 404 kts | 292° |
| 2026-04-25 16:31 | 26.13327 | 52.49554 | 31946 ft | 404 kts | 292° |
| 2026-04-25 16:31 | 26.15836 | 52.43984 | 31944 ft | 404 kts | 292° |
| 2026-04-25 16:32 | 26.18360 | 52.38376 | 31956 ft | 404 kts | 292° |
| 2026-04-25 16:32 | 26.20864 | 52.32811 | 31956 ft | 403 kts | 292° |
| 2026-04-25 16:33 | 26.23351 | 52.27234 | 31958 ft | 403 kts | 292° |
| 2026-04-25 16:33 | 26.25785 | 52.21601 | 31955 ft | 403 kts | 291° |
| 2026-04-25 16:34 | 26.28194 | 52.15988 | 31957 ft | 403 kts | 291° |
| 2026-04-25 16:34 | 26.30618 | 52.10354 | 31954 ft | 403 kts | 291° |
| 2026-04-25 16:35 | 26.33047 | 52.04723 | 31972 ft | 402 kts | 291° |
| 2026-04-25 16:35 | 26.35473 | 51.99105 | 31969 ft | 401 kts | 291° |
| 2026-04-25 16:36 | 26.37812 | 51.93500 | 31959 ft | 399 kts | 287° |
| 2026-04-25 16:36 | 26.39760 | 51.87702 | 31957 ft | 399 kts | 287° |
| 2026-04-25 16:37 | 26.41708 | 51.81898 | 31958 ft | 399 kts | 287° |
| 2026-04-25 16:37 | 26.43653 | 51.76112 | 31953 ft | 400 kts | 287° |
| 2026-04-25 16:38 | 26.45598 | 51.70318 | 31971 ft | 400 kts | 287° |
| 2026-04-25 16:38 | 26.47548 | 51.64489 | 31972 ft | 400 kts | 287° |
| 2026-04-25 16:39 | 26.49480 | 51.58695 | 31974 ft | 399 kts | 287° |
| 2026-04-25 16:39 | 26.51419 | 51.52870 | 31967 ft | 399 kts | 287° |
| 2026-04-25 16:40 | 26.53339 | 51.47079 | 31962 ft | 399 kts | 286° |
| 2026-04-25 16:40 | 26.55269 | 51.41255 | 31957 ft | 400 kts | 286° |
| 2026-04-25 16:41 | 26.57188 | 51.35457 | 31980 ft | 399 kts | 286° |
| 2026-04-25 16:41 | 26.60088 | 51.26694 | 31947 ft | 400 kts | 285° |
| 2026-04-25 16:42 | 26.62012 | 51.20894 | 31952 ft | 401 kts | 285° |
| 2026-04-25 16:42 | 26.63945 | 51.15030 | 31939 ft | 401 kts | 285° |
| 2026-04-25 16:43 | 26.65884 | 51.09152 | 31944 ft | 402 kts | 285° |
| 2026-04-25 16:43 | 26.67810 | 51.03311 | 31945 ft | 402 kts | 285° |
| 2026-04-25 16:44 | 26.69739 | 50.97426 | 31963 ft | 402 kts | 285° |
| 2026-04-25 16:44 | 26.71614 | 50.91582 | 31966 ft | 401 kts | 285° |
| 2026-04-25 16:45 | 26.73486 | 50.85678 | 31960 ft | 401 kts | 285° |
| 2026-04-25 16:45 | 26.75358 | 50.79786 | 31958 ft | 402 kts | 285° |
| 2026-04-25 16:46 | 26.77236 | 50.73910 | 31955 ft | 402 kts | 285° |
| 2026-04-25 16:46 | 26.78808 | 50.68999 | 31956 ft | 402 kts | 285° |
| 2026-04-25 16:47 | 26.81016 | 50.62128 | 31981 ft | 403 kts | 285° |
| 2026-04-25 16:47 | 26.82999 | 50.56301 | 31977 ft | 403 kts | 286° |
| 2026-04-25 16:48 | 26.85018 | 50.50439 | 31985 ft | 402 kts | 286° |
| 2026-04-25 16:48 | 26.87017 | 50.44616 | 31980 ft | 404 kts | 289° |
| 2026-04-25 16:49 | 26.89848 | 50.39110 | 31978 ft | 408 kts | 296° |
| 2026-04-25 16:49 | 26.92843 | 50.33681 | 31980 ft | 408 kts | 296° |
| 2026-04-25 16:50 | 26.95804 | 50.28301 | 31986 ft | 407 kts | 296° |
| 2026-04-25 16:50 | 26.98777 | 50.22876 | 31990 ft | 407 kts | 296° |
| 2026-04-25 16:51 | 27.01720 | 50.17484 | 31985 ft | 407 kts | 295° |
| 2026-04-25 16:51 | 27.04189 | 50.12971 | 31987 ft | 408 kts | 297° |
| 2026-04-25 16:52 | 27.08423 | 50.07168 | 32001 ft | 414 kts | 304° |
| 2026-04-25 16:52 | 27.12169 | 50.02254 | 31990 ft | 413 kts | 304° |
| 2026-04-25 16:53 | 27.17765 | 49.94890 | 31990 ft | 414 kts | 304° |
| 2026-04-25 16:54 | 27.21505 | 49.89963 | 31989 ft | 413 kts | 304° |
| 2026-04-25 16:54 | 27.25215 | 49.85071 | 31988 ft | 413 kts | 304° |
| 2026-04-25 16:55 | 27.28942 | 49.80151 | 31988 ft | 413 kts | 303° |
| 2026-04-25 16:55 | 27.32672 | 49.75214 | 31988 ft | 412 kts | 303° |
| 2026-04-25 16:56 | 27.36371 | 49.70318 | 32004 ft | 411 kts | 304° |
| 2026-04-25 16:56 | 27.40055 | 49.65433 | 32022 ft | 410 kts | 303° |
| 2026-04-25 16:57 | 27.43750 | 49.60526 | 32004 ft | 410 kts | 304° |
| 2026-04-25 16:57 | 27.47447 | 49.55633 | 31996 ft | 411 kts | 306° |
| 2026-04-25 16:58 | 27.51822 | 49.51390 | 31986 ft | 419 kts | 315° |
| 2026-04-25 16:58 | 27.56384 | 49.47315 | 32016 ft | 417 kts | 314° |
| 2026-04-25 16:59 | 27.60928 | 49.43241 | 32012 ft | 417 kts | 314° |
| 2026-04-25 16:59 | 27.65450 | 49.39181 | 32005 ft | 417 kts | 314° |
| 2026-04-25 17:00 | 27.69992 | 49.35102 | 31997 ft | 416 kts | 314° |
| 2026-04-25 17:00 | 27.74534 | 49.31022 | 32017 ft | 416 kts | 314° |
| 2026-04-25 17:01 | 27.79030 | 49.26972 | 32013 ft | 415 kts | 314° |
| 2026-04-25 17:01 | 27.83562 | 49.22887 | 32008 ft | 415 kts | 314° |
| 2026-04-25 17:02 | 27.88127 | 49.18937 | 32003 ft | 421 kts | 321° |
| 2026-04-25 17:02 | 27.93216 | 49.15598 | 32003 ft | 423 kts | 322° |
| 2026-04-25 17:03 | 27.98317 | 49.12255 | 31983 ft | 424 kts | 322° |
| 2026-04-25 17:03 | 28.03439 | 49.08890 | 31978 ft | 425 kts | 322° |
| 2026-04-25 17:04 | 28.08533 | 49.05536 | 31978 ft | 425 kts | 322° |
| 2026-04-25 17:04 | 28.13664 | 49.02155 | 31988 ft | 426 kts | 322° |
| 2026-04-25 17:05 | 28.18768 | 48.98797 | 31987 ft | 426 kts | 322° |
| 2026-04-25 17:05 | 28.26483 | 48.93711 | 31988 ft | 426 kts | 322° |
| 2026-04-25 17:06 | 28.31586 | 48.90338 | 32000 ft | 426 kts | 322° |
| 2026-04-25 17:06 | 28.34156 | 48.88637 | 31317 ft | 428 kts | 322° |
| 2026-04-25 17:06 | 28.36728 | 48.86934 | 30770 ft | 425 kts | 322° |
| 2026-04-25 17:07 | 28.39284 | 48.85247 | 30237 ft | 422 kts | 322° |
| 2026-04-25 17:07 | 28.41783 | 48.83596 | 29661 ft | 419 kts | 322° |
| 2026-04-25 17:07 | 28.44291 | 48.81936 | 29140 ft | 413 kts | 322° |
| 2026-04-25 17:07 | 28.46766 | 48.80298 | 28636 ft | 409 kts | 322° |
| 2026-04-25 17:08 | 28.49213 | 48.78676 | 28128 ft | 404 kts | 322° |
| 2026-04-25 17:08 | 28.51597 | 48.77091 | 27639 ft | 399 kts | 322° |
| 2026-04-25 17:08 | 28.53980 | 48.75506 | 27170 ft | 394 kts | 322° |
| 2026-04-25 17:08 | 28.56287 | 48.73877 | 26715 ft | 384 kts | 316° |
| 2026-04-25 17:09 | 28.58251 | 48.71899 | 26261 ft | 370 kts | 306° |
| 2026-04-25 17:09 | 28.59841 | 48.69649 | 25811 ft | 361 kts | 300° |
| 2026-04-25 17:09 | 28.61346 | 48.67378 | 25383 ft | 357 kts | 301° |
| 2026-04-25 17:09 | 28.62825 | 48.65156 | 24953 ft | 354 kts | 301° |
| 2026-04-25 17:10 | 28.64312 | 48.62926 | 24515 ft | 352 kts | 301° |
| 2026-04-25 17:10 | 28.65784 | 48.60716 | 24077 ft | 349 kts | 301° |
| 2026-04-25 17:10 | 28.67248 | 48.58517 | 23641 ft | 347 kts | 301° |
| 2026-04-25 17:10 | 28.68702 | 48.56327 | 23144 ft | 345 kts | 301° |
| 2026-04-25 17:11 | 28.70146 | 48.54153 | 22702 ft | 342 kts | 301° |
| 2026-04-25 17:11 | 28.71559 | 48.52026 | 22296 ft | 338 kts | 301° |
| 2026-04-25 17:11 | 28.73038 | 48.49946 | 21992 ft | 337 kts | 309° |
| 2026-04-25 17:11 | 28.74866 | 48.48233 | 21738 ft | 343 kts | 322° |
| 2026-04-25 17:12 | 28.76960 | 48.46889 | 21372 ft | 345 kts | 326° |
| 2026-04-25 17:12 | 28.79047 | 48.45595 | 20874 ft | 346 kts | 326° |
| 2026-04-25 17:12 | 28.81166 | 48.44285 | 20441 ft | 344 kts | 327° |
| 2026-04-25 17:12 | 28.83277 | 48.42982 | 19909 ft | 347 kts | 327° |
| 2026-04-25 17:13 | 28.85379 | 48.41683 | 19665 ft | 340 kts | 327° |
| 2026-04-25 17:13 | 28.86053 | 48.41267 | 19568 ft | 338 kts | 327° |
| 2026-04-25 17:13 | 28.89466 | 48.39150 | 18675 ft | 334 kts | 327° |
| 2026-04-25 17:13 | 28.91514 | 48.37873 | 17912 ft | 334 kts | 328° |
| 2026-04-25 17:14 | 28.93567 | 48.36592 | 17450 ft | 335 kts | 328° |
| 2026-04-25 17:14 | 28.95592 | 48.35328 | 17113 ft | 331 kts | 328° |
| 2026-04-25 17:14 | 28.97590 | 48.34083 | 16725 ft | 330 kts | 328° |
| 2026-04-25 17:14 | 28.99600 | 48.32829 | 16247 ft | 326 kts | 328° |
| 2026-04-25 17:15 | 29.01589 | 48.31589 | 15599 ft | 324 kts | 328° |
| 2026-04-25 17:15 | 29.03558 | 48.30363 | 15087 ft | 317 kts | 328° |
| 2026-04-25 17:15 | 29.05445 | 48.29190 | 14955 ft | 298 kts | 329° |
| 2026-04-25 17:15 | 29.07216 | 48.28089 | 14835 ft | 281 kts | 328° |
| 2026-04-25 17:16 | 29.08880 | 48.27053 | 14700 ft | 271 kts | 328° |
| 2026-04-25 17:16 | 29.10520 | 48.26027 | 14542 ft | 266 kts | 328° |
| 2026-04-25 17:16 | 29.12136 | 48.25016 | 14325 ft | 264 kts | 328° |
| 2026-04-25 17:16 | 29.13734 | 48.24015 | 14058 ft | 259 kts | 329° |
| 2026-04-25 17:17 | 29.14780 | 48.23360 | 13796 ft | 257 kts | 329° |
| 2026-04-25 17:17 | 29.16864 | 48.22052 | 12974 ft | 263 kts | 329° |
| 2026-04-25 17:17 | 29.17974 | 48.21354 | 12426 ft | 271 kts | 329° |
| 2026-04-25 17:17 | 29.19622 | 48.20319 | 11946 ft | 275 kts | 329° |
| 2026-04-25 17:18 | 29.21311 | 48.19259 | 11539 ft | 278 kts | 328° |
| 2026-04-25 17:18 | 29.23000 | 48.18203 | 11334 ft | 273 kts | 328° |
| 2026-04-25 17:18 | 29.24662 | 48.17165 | 11066 ft | 271 kts | 329° |
| 2026-04-25 17:18 | 29.26294 | 48.16144 | 10775 ft | 269 kts | 329° |
| 2026-04-25 17:19 | 29.27935 | 48.15118 | 10494 ft | 268 kts | 328° |
| 2026-04-25 17:19 | 29.29574 | 48.14105 | 10188 ft | 268 kts | 332° |
| 2026-04-25 17:19 | 29.31260 | 48.13197 | 9779 ft | 266 kts | 333° |
| 2026-04-25 17:19 | 29.32947 | 48.12336 | 9195 ft | 265 kts | 334° |
| 2026-04-25 17:20 | 29.34620 | 48.11504 | 8880 ft | 254 kts | 335° |
| 2026-04-25 17:20 | 29.36201 | 48.10724 | 8560 ft | 243 kts | 333° |
| 2026-04-25 17:20 | 29.37753 | 48.09971 | 8108 ft | 240 kts | 334° |
| 2026-04-25 17:20 | 29.39264 | 48.09233 | 7632 ft | 238 kts | 334° |
| 2026-04-25 17:21 | 29.40784 | 48.08495 | 7146 ft | 237 kts | 334° |
| 2026-04-25 17:21 | 29.42301 | 48.07750 | 6671 ft | 236 kts | 333° |
| 2026-04-25 17:21 | 29.43809 | 48.07020 | 6346 ft | 228 kts | 334° |
| 2026-04-25 17:21 | 29.45245 | 48.06325 | 6224 ft | 220 kts | 334° |
| 2026-04-25 17:22 | 29.46512 | 48.05466 | 6063 ft | 209 kts | 308° |
| 2026-04-25 17:22 | 29.47024 | 48.04538 | 5899 ft | 202 kts | 284° |
| 2026-04-25 17:22 | 29.46918 | 48.02482 | 5547 ft | 197 kts | 248° |
| 2026-04-25 17:22 | 29.46395 | 48.01020 | 5302 ft | 198 kts | 244° |
| 2026-04-25 17:23 | 29.45833 | 47.99573 | 5075 ft | 197 kts | 244° |
| 2026-04-25 17:23 | 29.45277 | 47.98154 | 4849 ft | 197 kts | 244° |
| 2026-04-25 17:23 | 29.44715 | 47.96712 | 4608 ft | 198 kts | 244° |
| 2026-04-25 17:23 | 29.44159 | 47.95271 | 4386 ft | 196 kts | 244° |
| 2026-04-25 17:24 | 29.43618 | 47.93833 | 4159 ft | 196 kts | 244° |
| 2026-04-25 17:24 | 29.43089 | 47.92395 | 3947 ft | 195 kts | 244° |
| 2026-04-25 17:24 | 29.42577 | 47.90979 | 3721 ft | 195 kts | 244° |
| 2026-04-25 17:24 | 29.42064 | 47.89530 | 3476 ft | 195 kts | 244° |
| 2026-04-25 17:25 | 29.41560 | 47.88089 | 3296 ft | 193 kts | 244° |
| 2026-04-25 17:25 | 29.40966 | 47.86727 | 3083 ft | 187 kts | 223° |
| 2026-04-25 17:25 | 29.39886 | 47.85973 | 2847 ft | 182 kts | 194° |
| 2026-04-25 17:25 | 29.38656 | 47.85882 | 2654 ft | 181 kts | 171° |
| 2026-04-25 17:26 | 29.37471 | 47.86383 | 2424 ft | 183 kts | 158° |
| 2026-04-25 17:26 | 29.36307 | 47.87007 | 2204 ft | 185 kts | 158° |
| 2026-04-25 17:26 | 29.35135 | 47.87634 | 2027 ft | 186 kts | 158° |
| 2026-04-25 17:26 | 29.33961 | 47.88260 | 1896 ft | 184 kts | 158° |
| 2026-04-25 17:27 | 29.32842 | 47.88858 | 1795 ft | 172 kts | 158° |
| 2026-04-25 17:27 | 29.31794 | 47.89417 | 1668 ft | 159 kts | 158° |
| 2026-04-25 17:27 | 29.30808 | 47.89943 | 1477 ft | 154 kts | 158° |
| 2026-04-25 17:27 | 29.30164 | 47.90285 | 1326 ft | 153 kts | 157° |
| 2026-04-25 17:28 | 29.28936 | 47.90940 | 1167 ft | 136 kts | 158° |
| 2026-04-25 17:28 | 29.28111 | 47.91379 | 892 ft | 132 kts | 158° |
| 2026-04-25 17:28 | 29.27342 | 47.91798 | 837 ft | 116 kts | 156° |
| 2026-04-25 17:28 | 29.26483 | 47.92265 | 1087 ft | 151 kts | 157° |
| 2026-04-25 17:29 | 29.25500 | 47.92790 | 1649 ft | 163 kts | 158° |
| 2026-04-25 17:29 | 29.24441 | 47.93349 | 1959 ft | 181 kts | 158° |
| 2026-04-25 17:29 | 29.23239 | 47.93987 | 2349 ft | 196 kts | 158° |
| 2026-04-25 17:29 | 29.22073 | 47.94816 | 2858 ft | 203 kts | 137° |
| 2026-04-25 17:30 | 29.21408 | 47.96323 | 3156 ft | 232 kts | 102° |
| 2026-04-25 17:30 | 29.21590 | 47.98227 | 3698 ft | 245 kts | 70° |
| 2026-04-25 17:30 | 29.22283 | 48.00015 | 3999 ft | 249 kts | 65° |
| 2026-04-25 17:30 | 29.23053 | 48.01784 | 4027 ft | 246 kts | 64° |
| 2026-04-25 17:31 | 29.23839 | 48.03526 | 4036 ft | 246 kts | 64° |
| 2026-04-25 17:31 | 29.24611 | 48.05236 | 4032 ft | 234 kts | 64° |
| 2026-04-25 17:31 | 29.25352 | 48.06822 | 4031 ft | 223 kts | 60° |
| 2026-04-25 17:31 | 29.26100 | 48.08382 | 4034 ft | 222 kts | 63° |
| 2026-04-25 17:32 | 29.26821 | 48.09960 | 4035 ft | 223 kts | 63° |
| 2026-04-25 17:32 | 29.27527 | 48.11522 | 4031 ft | 223 kts | 63° |
| 2026-04-25 17:32 | 29.28368 | 48.12999 | 4027 ft | 221 kts | 41° |
| 2026-04-25 17:32 | 29.29709 | 48.13781 | 3859 ft | 216 kts | 6° |
| 2026-04-25 17:33 | 29.31184 | 48.13609 | 3582 ft | 214 kts | 339° |
| 2026-04-25 17:33 | 29.32595 | 48.13018 | 3303 ft | 217 kts | 335° |
| 2026-04-25 17:33 | 29.33977 | 48.12358 | 3087 ft | 217 kts | 334° |
| 2026-04-25 17:33 | 29.35367 | 48.11678 | 3018 ft | 217 kts | 334° |
| 2026-04-25 17:34 | 29.36762 | 48.10990 | 3028 ft | 218 kts | 334° |
| 2026-04-25 17:34 | 29.38158 | 48.10299 | 3027 ft | 218 kts | 334° |
| 2026-04-25 17:34 | 29.39556 | 48.09607 | 3026 ft | 218 kts | 334° |
| 2026-04-25 17:34 | 29.40938 | 48.08923 | 3026 ft | 218 kts | 334° |
| 2026-04-25 17:35 | 29.41880 | 48.08457 | 2999 ft | 217 kts | 334° |
| 2026-04-25 17:35 | 29.43723 | 48.07550 | 2697 ft | 217 kts | 334° |
| 2026-04-25 17:35 | 29.45116 | 48.06860 | 2479 ft | 217 kts | 334° |
| 2026-04-25 17:35 | 29.46461 | 48.06093 | 2346 ft | 214 kts | 317° |
| 2026-04-25 17:36 | 29.47286 | 48.04754 | 2315 ft | 203 kts | 279° |
| 2026-04-25 17:36 | 29.47261 | 48.03203 | 2318 ft | 198 kts | 250° |
| 2026-04-25 17:36 | 29.46817 | 48.01704 | 2323 ft | 197 kts | 245° |
| 2026-04-25 17:36 | 29.46312 | 48.00236 | 2331 ft | 196 kts | 244° |
| 2026-04-25 17:37 | 29.45822 | 47.98801 | 2326 ft | 195 kts | 244° |
| 2026-04-25 17:37 | 29.45325 | 47.97355 | 2326 ft | 194 kts | 244° |
| 2026-04-25 17:37 | 29.44832 | 47.95914 | 2323 ft | 194 kts | 244° |
| 2026-04-25 17:37 | 29.44342 | 47.94467 | 2319 ft | 194 kts | 244° |
| 2026-04-25 17:38 | 29.43847 | 47.93019 | 2320 ft | 195 kts | 244° |
| 2026-04-25 17:38 | 29.43520 | 47.92055 | 2325 ft | 195 kts | 244° |
| 2026-04-25 17:38 | 29.42870 | 47.90129 | 2326 ft | 194 kts | 244° |
| 2026-04-25 17:38 | 29.42276 | 47.88740 | 2319 ft | 191 kts | 223° |
| 2026-04-25 17:39 | 29.41222 | 47.87924 | 2322 ft | 184 kts | 195° |
| 2026-04-25 17:39 | 29.39967 | 47.87791 | 2335 ft | 181 kts | 171° |
| 2026-04-25 17:39 | 29.38783 | 47.88296 | 2328 ft | 182 kts | 158° |
| 2026-04-25 17:39 | 29.37629 | 47.88916 | 2327 ft | 182 kts | 158° |
| 2026-04-25 17:40 | 29.36493 | 47.89525 | 2328 ft | 182 kts | 158° |
| 2026-04-25 17:40 | 29.35342 | 47.90140 | 2330 ft | 182 kts | 158° |
| 2026-04-25 17:40 | 29.34189 | 47.90754 | 2229 ft | 182 kts | 158° |
| 2026-04-25 17:40 | 29.33063 | 47.91355 | 2056 ft | 174 kts | 159° |
| 2026-04-25 17:41 | 29.31999 | 47.91922 | 1839 ft | 166 kts | 158° |
| 2026-04-25 17:41 | 29.30988 | 47.92461 | 1629 ft | 155 kts | 158° |
| 2026-04-25 17:41 | 29.30030 | 47.92971 | 1432 ft | 148 kts | 159° |
| 2026-04-25 17:41 | 29.29127 | 47.93453 | 1263 ft | 138 kts | 159° |
| 2026-04-25 17:42 | 29.28261 | 47.93913 | 1074 ft | 136 kts | 160° |
| 2026-04-25 17:42 | 29.27417 | 47.94372 | 937 ft | 136 kts | 159° |
| 2026-04-25 17:42 | 29.26553 | 47.94826 | 757 ft | 137 kts | 157° |
| 2026-04-25 17:42 | 29.25680 | 47.95284 | 489 ft | 137 kts | 157° |
| 2026-04-25 17:43 | 29.24810 | 47.95738 | 383 ft | 139 kts | 156° |
| 2026-04-25 17:43 | 29.23933 | 47.96218 | 182 ft | 139 kts | 156° |
| 2026-04-25 17:43 | 29.23150 | 47.96630 | 163 ft | 102 kts | 155° |
| 2026-04-25 17:43 | 29.22640 | 47.96900 | 163 ft | 64 kts | 155° |
| 2026-04-25 17:44 | 29.22302 | 47.97080 | 165 ft | 47 kts | 155° |
| 2026-04-25 17:44 | 29.22041 | 47.97225 | 167 ft | 33 kts | 144° |
| 2026-04-25 17:44 | 29.21929 | 47.97429 | 165 ft | 19 kts | 111° |
| 2026-04-25 17:44 | 29.21928 | 47.97471 | 166 ft | 0 kts | 75° |
| 2026-04-25 17:45 | 29.21929 | 47.97475 | 166 ft | 5 kts | 74° |
| 2026-04-25 17:45 | 29.21939 | 47.97493 | 166 ft | 10 kts | 50° |
| 2026-04-25 17:45 | 29.22035 | 47.97472 | 166 ft | 8 kts | 334° |
| 2026-04-25 17:45 | 29.22083 | 47.97447 | 166 ft | 10 kts | 335° |
| 2026-04-25 17:46 | 29.22140 | 47.97417 | 167 ft | 8 kts | 335° |
| 2026-04-25 17:46 | 29.22195 | 47.97388 | 167 ft | 13 kts | 334° |
| 2026-04-25 17:46 | 29.22283 | 47.97340 | 167 ft | 14 kts | 335° |
| 2026-04-25 17:46 | 29.22389 | 47.97284 | 167 ft | 18 kts | 335° |
| 2026-04-25 17:47 | 29.22509 | 47.97220 | 167 ft | 20 kts | 334° |
| 2026-04-25 17:47 | 29.22640 | 47.97150 | 167 ft | 22 kts | 335° |
| 2026-04-25 17:47 | 29.22779 | 47.97075 | 167 ft | 23 kts | 335° |
| 2026-04-25 17:47 | 29.22905 | 47.97008 | 167 ft | 19 kts | 334° |
| 2026-04-25 17:48 | 29.23147 | 47.96882 | 166 ft | 21 kts | 335° |
| 2026-04-25 17:48 | 29.23285 | 47.96808 | 164 ft | 22 kts | 335° |
| 2026-04-25 17:48 | 29.23417 | 47.96740 | 163 ft | 20 kts | 335° |
| 2026-04-25 17:49 | 29.23541 | 47.96674 | 163 ft | 18 kts | 335° |
| 2026-04-25 17:49 | 29.23650 | 47.96615 | 164 ft | 16 kts | 335° |
| 2026-04-25 17:49 | 29.23742 | 47.96566 | 164 ft | 14 kts | 335° |
| 2026-04-25 17:49 | 29.23825 | 47.96521 | 164 ft | 13 kts | 334° |
| 2026-04-25 17:50 | 29.23900 | 47.96481 | 164 ft | 12 kts | 335° |
| 2026-04-25 17:50 | 29.24004 | 47.96424 | 164 ft | 18 kts | 335° |
| 2026-04-25 17:50 | 29.24111 | 47.96367 | 164 ft | 15 kts | 335° |
| 2026-04-25 17:50 | 29.24199 | 47.96322 | 164 ft | 13 kts | 335° |
| 2026-04-25 17:51 | 29.24276 | 47.96283 | 164 ft | 11 kts | 336° |
| 2026-04-25 17:51 | 29.24353 | 47.96240 | 164 ft | 14 kts | 334° |
| 2026-04-25 17:51 | 29.24437 | 47.96196 | 165 ft | 13 kts | 336° |
| 2026-04-25 17:51 | 29.24521 | 47.96152 | 165 ft | 13 kts | 334° |
| 2026-04-25 17:52 | 29.24596 | 47.96111 | 165 ft | 11 kts | 335° |
| 2026-04-25 17:52 | 29.24619 | 47.96099 | 165 ft | 11 kts | 334° |
| 2026-04-25 17:52 | 29.24752 | 47.96028 | 165 ft | 13 kts | 335° |
| 2026-04-25 17:52 | 29.24827 | 47.95988 | 165 ft | 11 kts | 335° |
| 2026-04-25 17:53 | 29.24892 | 47.95954 | 165 ft | 8 kts | 344° |
| 2026-04-25 17:53 | 29.24922 | 47.95980 | 166 ft | 2 kts | 63° |
| 2026-04-25 17:53 | 29.24939 | 47.96021 | 167 ft | 7 kts | 65° |
| 2026-04-25 17:53 | 29.24953 | 47.96056 | 167 ft | 2 kts | 65° |
| 2026-04-25 17:54 | 29.24955 | 47.96061 | 167 ft | 0 kts | 65° |